Hovedside
METAR-TAF:

METAR-TAF

Lufthavner :

Mo i Rana lufthavn. Røssvoll

Mo i Rana, Norge

breddegrad: 66-22N, lengdegrad: 014-18E, høyde over havet: 7 m

Gjeldene værobservasjon

Denne rapporten ble laget for 3 timer og 13 minutter siden, klokken 14:20 UTC
Vind 14 kt fra Vest-nordvest
Temperatur 11°C
Luftfuktighet 50%
Trykk 1034 hPa
Sikt 10 km eller mer
Få skyer i en høyde av 3000 ft
Spredte skyer i en høyde av 4500 ft
regnbyger i nærheten

METAR: ENRA 261420Z 29014KT 9999 VCSH FEW030 SCT045 11/01 Q1034

Tid: 19:33 (17:33 UTC)


TAF: fraværende

Værobservasjoner og værvarsel for over 4000 flyplasser (METAR- og TAF-rapporter).

Tilgjengelige stasjoner er representert av de røde og gule prikkene på kartet.

Hold musepekeren over prikken for å se navnet på stasjonen.

Klikk så for å se værobservasjoner og -varsler.

For å forandre kartet kan du klikke på den grønne knappen med svart kryss for å zoome inn, på den grønne knappen med strek for å zoome ut, eller på de grønne pilene for å se tilstøtende kart.


METAR-TAF: